ADDS METAR Data INFO
IDs: Format: Raw Decoded Include TAF

Data at: 2252 UTC 11 Dec 2017

KTEB 112151Z 26003KT 10SM CLR 04/M06 A2999 RMK AO2 SLP156 T00391061
KTEB 112051Z VRB06KT 10SM CLR 04/M06 A2999 RMK AO2 SLP155 T00441056 53002
KTEB 111951Z 28011G14KT 10SM BKN050 05/M06 A2999 RMK AO2 SLP155 T00501061
KTEB 111851Z 33007KT 10SM BKN050 05/M06 A2998 RMK AO2 SLP151 T00501061
KTEB 111751Z 24004KT 10SM CLR 04/M06 A2998 RMK AO2 SLP153 T00441056 10050 20000 58017
KTEB 111651Z 31008KT 10SM CLR 04/M06 A3001 RMK AO2 SLP162 T00441061
KTEB 111551Z 28008KT 10SM SCT038 04/M05 A3003 RMK AO2 SLP169 T00391050
KTEB 111451Z 28005KT 10SM CLR 02/M04 A3003 RMK AO2 SLP170 T00221044 51008
KTEB 111351Z 21008KT 10SM CLR 01/M03 A3003 RMK AO2 SLP168 T00111033
KTEB 111251Z 23006KT 10SM R06/6000VP6000FT SCT070 01/M04 A3002 RMK AO2 SLP167 T00061039
KTEB 111151Z 23006KT 10SM OVC070 01/M04 A3001 RMK AO2 SLP162 T00111044 10017 20011 52008
KTEB 111051Z 24007KT 10SM OVC065 01/M05 A3000 RMK AO2 SLP159 T00111050
KTEB 110951Z 24007KT 10SM OVC060 01/M05 A2999 RMK AO2 SLP156 T00111050
KTEB 110851Z 23007KT 10SM SCT065 BKN080 OVC095 01/M05 A2999 RMK AO2 SLP154 T00111050 55005
KTEB 110751Z 22007KT 10SM OVC110 01/M05 A2998 RMK AO2 SLP152 T00111050
KTEB 110651Z AUTO 21008KT 10SM OVC100 01/M06 A2999 RMK AO2 SLP156 T00111056 TSNO
KTEB 110551Z AUTO 23007KT 10SM OVC090 01/M05 A3000 RMK AO2 SLP159 T00111050 10028 20011 58002 TSNO
KTEB 110451Z 23007KT 10SM OVC110 02/M06 A3001 RMK AO2 SLP161 T00171056 400501033
KTEB 110351Z 22008KT 10SM OVC100 02/M05 A3001 RMK AO2 SLP162 T00171050
KTEB 110251Z 22007KT 10SM FEW110 02/M05 A3001 RMK AO2 SLP160 T00171050 51008
KTEB 110151Z 22010KT 10SM CLR 02/M05 A3000 RMK AO2 SLP158 T00171050
KTEB 110051Z 23007KT 10SM CLR 02/M06 A3000 RMK AO2 SLP158 T00221056
KTEB 102351Z 22007KT 10SM CLR 02/M06 A2998 RMK AO2 SLP152 T00221056 10050 20022 51014
KTEB 102251Z 22009KT 10SM SCT055 03/M06 A2998 RMK AO2 SLP151 T00331061
KTEB 102151Z 25008KT 10SM BKN060 03/M06 A2996 RMK AO2 SLP144 T00331056
KTEB 102051Z 26009KT 10SM FEW045 OVC060 03/M05 A2994 RMK AO2 SLP138 T00331050 53012
KTEB 101951Z 25010G17KT 10SM SCT049 OVC060 04/M05 A2992 RMK AO2 SLP131 T00441050
KTEB 101851Z 28008KT 10SM CLR 04/M05 A2990 RMK AO2 SLP126 T00391050
KTEB 101751Z 27015G20KT 10SM CLR 03/M06 A2991 RMK AO2 SLP127 T00331056 10039 21022 55003
KTEB 101651Z 26009G15KT 10SM CLR 03/M05 A2991 RMK AO2 SLP126 T00281050
KTEB 101551Z 26009KT 10SM CLR 02/M06 A2991 RMK AO2 SLP127 T00221056
KTEB 101451Z 28009KT 10SM CLR 01/M06 A2991 RMK AO2 SLP129 T00061061 51025
KTEB 101351Z 26008KT 10SM CLR M01/M07 A2990 RMK AO2 SLP125 T10061072
KTEB 101251Z 25005KT 10SM CLR M02/M07 A2987 RMK AO2 SLP115 4/004 T10171072
KTEB 101151Z COR 28006KT 10SM CLR M01/M07 A2984 RMK AO2 SLP105 70032 T10111072 10000 21033 53030